createdAt,value
2022-12-29T00:04:32.463Z,0
2022-12-29T00:09:49.962Z,0
2022-12-29T00:15:07.382Z,0
2022-12-29T00:20:27.197Z,0
2022-12-29T00:25:44.332Z,0
2022-12-29T00:31:03.823Z,0
2022-12-29T00:36:21.304Z,0
2022-12-29T00:41:38.756Z,0
2022-12-29T00:47:03.142Z,0
2022-12-29T00:52:23.861Z,0
2022-12-29T00:57:41.171Z,0
2022-12-29T01:02:58.652Z,0
2022-12-29T01:08:25.031Z,0
2022-12-29T01:13:50.099Z,0
2022-12-29T01:19:07.528Z,0
2022-12-29T01:24:32.168Z,0
2022-12-29T01:29:49.547Z,0
2022-12-29T01:35:09.449Z,0
2022-12-29T01:40:26.710Z,0
2022-12-29T01:45:44.181Z,0
2022-12-29T01:51:04.534Z,0
2022-12-29T01:56:22.064Z,0
2022-12-29T02:01:39.500Z,0
2022-12-29T02:06:56.997Z,0
2022-12-29T02:12:17.461Z,0
2022-12-29T02:17:35.592Z,0
2022-12-29T02:22:52.893Z,0
2022-12-29T02:28:10.283Z,0
2022-12-29T02:33:28.001Z,0
2022-12-29T02:39:06.347Z,0
2022-12-29T02:44:23.925Z,0
2022-12-29T02:49:41.136Z,0
2022-12-29T02:54:58.281Z,0
2022-12-29T03:00:18.432Z,0
2022-12-29T03:05:35.801Z,0
2022-12-29T03:10:53.069Z,0
2022-12-29T03:16:13.346Z,0
2022-12-29T03:21:30.844Z,0
2022-12-29T03:26:48.133Z,0
2022-12-29T03:32:05.455Z,0
2022-12-29T03:37:23.007Z,0
2022-12-29T03:42:40.292Z,0
2022-12-29T03:47:57.694Z,0
2022-12-29T03:53:14.800Z,0
2022-12-29T03:58:32.127Z,0
2022-12-29T04:03:50.128Z,0
2022-12-29T04:09:11.035Z,0
2022-12-29T04:14:28.451Z,0
2022-12-29T04:19:46.026Z,0
2022-12-29T04:25:03.407Z,0
2022-12-29T04:30:20.664Z,0
2022-12-29T04:35:37.913Z,0
2022-12-29T04:40:55.300Z,0
2022-12-29T04:51:35.823Z,0
2022-12-29T05:02:43.125Z,0
2022-12-29T05:08:00.498Z,0
2022-12-29T05:13:20.101Z,0
2022-12-29T05:18:37.373Z,0
2022-12-29T05:23:54.700Z,0
2022-12-29T05:29:12.062Z,0
2022-12-29T05:34:29.204Z,0
2022-12-29T05:39:46.631Z,0
2022-12-29T05:45:06.425Z,0
2022-12-29T05:50:24.827Z,0
2022-12-29T05:55:46.673Z,0
2022-12-29T06:01:04.341Z,0
2022-12-29T06:06:21.685Z,0
2022-12-29T06:11:48.330Z,0
2022-12-29T06:17:06.139Z,0
2022-12-29T06:22:23.353Z,0
2022-12-29T06:27:40.732Z,0
2022-12-29T06:32:57.881Z,0
2022-12-29T06:43:25.245Z,0
2022-12-29T06:48:42.863Z,0
2022-12-29T06:54:00.226Z,0
2022-12-29T06:59:17.323Z,0
2022-12-29T07:04:35.047Z,0
2022-12-29T07:09:52.338Z,0
2022-12-29T07:15:12.636Z,0.5
2022-12-29T07:20:29.751Z,20.4
2022-12-29T07:25:46.731Z,25.4
2022-12-29T07:31:03.807Z,74.6
2022-12-29T07:36:34.122Z,133.8
2022-12-29T07:41:51.953Z,202.5
2022-12-29T07:47:08.907Z,356.7
2022-12-29T07:52:35.404Z,499.2
2022-12-29T07:57:56.313Z,614.6
2022-12-29T08:03:13.570Z,704.2
2022-12-29T08:08:30.749Z,861.7
2022-12-29T08:19:07.759Z,1127.1
2022-12-29T08:24:26.711Z,2526.2
2022-12-29T08:30:00.933Z,2959.2
2022-12-29T08:35:18.409Z,2697.5
2022-12-29T08:40:35.349Z,3110.8
2022-12-29T08:46:08.892Z,3924.6
2022-12-29T08:51:26.248Z,3163.3
2022-12-29T08:56:43.331Z,3832.9
2022-12-29T09:02:00.864Z,4124.6
2022-12-29T09:18:46.297Z,4939.6
2022-12-29T09:40:26.088Z,5798.3
2022-12-29T09:45:50.949Z,6157.5
2022-12-29T09:51:16.696Z,7030.8
2022-12-29T09:56:33.852Z,5642.5
2022-12-29T10:01:51.331Z,5514.2
2022-12-29T10:12:54.824Z,4577.1
2022-12-29T10:18:13.950Z,5870.8
2022-12-29T10:29:27.229Z,6882.9
2022-12-29T10:58:25.396Z,7217.1
2022-12-29T11:09:51.312Z,8925.8
2022-12-29T11:15:13.545Z,6160.8
2022-12-29T11:20:30.341Z,4700.4
2022-12-29T11:25:46.396Z,4801.7
2022-12-29T11:31:06.437Z,5252.9
2022-12-29T11:36:23.268Z,3532.1
2022-12-29T11:41:40.386Z,3590.8
2022-12-29T11:46:57.306Z,4516.7
2022-12-29T11:52:14.430Z,5286.2
2022-12-29T11:57:31.484Z,5677.5
2022-12-29T12:20:15.320Z,6699.6
2022-12-29T12:25:31.609Z,8498.7
2022-12-29T12:30:48.491Z,8547.9
2022-12-29T12:36:14.317Z,6154.2
2022-12-29T12:41:37.971Z,4002.5
2022-12-29T12:46:55.539Z,4954.6
2022-12-29T12:52:12.782Z,1899.6
2022-12-29T12:57:39.104Z,1514.2
2022-12-29T13:02:56.138Z,3360
2022-12-29T13:08:13.384Z,2797.9
2022-12-29T13:13:30.612Z,3389.2
2022-12-29T13:18:47.423Z,2866.3
2022-12-29T13:24:04.407Z,2282.1
2022-12-29T13:29:24.015Z,4515.4
2022-12-29T13:34:41.390Z,4339.6
2022-12-29T13:40:00.694Z,2830.4
2022-12-29T13:45:35.660Z,2831.7
2022-12-29T13:50:53.439Z,2062.9
2022-12-29T13:56:10.323Z,1839.2
2022-12-29T14:01:27.577Z,2056.3
2022-12-29T14:06:44.676Z,1622.1
2022-12-29T14:12:08.923Z,1955.4
2022-12-29T14:17:26.178Z,1662.9
2022-12-29T14:22:43.320Z,2012.1
2022-12-29T14:28:00.350Z,1657.5
2022-12-29T14:33:24.685Z,1535
2022-12-29T14:38:41.722Z,1486.2
2022-12-29T14:43:59.165Z,1890
2022-12-29T14:49:18.782Z,1475
2022-12-29T14:54:36.002Z,1292.5
2022-12-29T14:59:53.640Z,887.5
2022-12-29T15:05:10.573Z,869.2
2022-12-29T15:10:30.449Z,683.7
2022-12-29T15:15:47.349Z,650.4
2022-12-29T15:21:04.353Z,535.8
2022-12-29T15:26:21.209Z,382.5
2022-12-29T15:31:38.030Z,259.2
2022-12-29T15:36:55.402Z,181.3
2022-12-29T15:42:17.217Z,134.2
2022-12-29T15:47:42.476Z,86.7
2022-12-29T15:53:07.800Z,38.3
2022-12-29T15:58:32.794Z,17.1
2022-12-29T16:03:58.143Z,0
2022-12-29T16:09:26.709Z,0
2022-12-29T16:14:52.078Z,0
2022-12-29T16:20:20.164Z,0
2022-12-29T16:25:45.614Z,0
2022-12-29T16:31:11.687Z,0
2022-12-29T16:36:37.333Z,0
2022-12-29T16:42:05.512Z,0
2022-12-29T16:47:30.977Z,0
2022-12-29T16:52:56.401Z,0
2022-12-29T16:58:24.304Z,0
2022-12-29T17:03:49.745Z,0
2022-12-29T17:09:15.459Z,0
2022-12-29T17:14:40.894Z,0
2022-12-29T17:20:06.303Z,0
2022-12-29T17:25:43.391Z,0
2022-12-29T17:31:09.504Z,0
2022-12-29T17:36:34.951Z,0
2022-12-29T17:42:00.342Z,0
2022-12-29T17:47:41.619Z,0
2022-12-29T17:53:07.532Z,0
2022-12-29T17:58:49.780Z,0
2022-12-29T18:04:15.610Z,0
2022-12-29T18:09:43.388Z,0
2022-12-29T18:15:08.612Z,0
2022-12-29T18:20:34.037Z,0
2022-12-29T18:25:59.493Z,0
2022-12-29T18:31:25.199Z,0
2022-12-29T18:36:50.651Z,0
2022-12-29T18:42:19.266Z,0
2022-12-29T18:47:44.524Z,0
2022-12-29T18:53:09.858Z,0
2022-12-29T18:58:35.132Z,0
2022-12-29T19:04:00.501Z,0
2022-12-29T19:09:28.584Z,0
2022-12-29T19:14:56.687Z,0
2022-12-29T19:20:24.768Z,0
2022-12-29T19:25:49.955Z,0
2022-12-29T19:31:15.364Z,0
2022-12-29T19:42:09.243Z,0
2022-12-29T19:47:34.881Z,0
2022-12-29T19:53:05.274Z,0
2022-12-29T19:58:31.003Z,0
2022-12-29T20:03:59.449Z,0
2022-12-29T20:09:24.862Z,0
2022-12-29T20:14:50.158Z,0
2022-12-29T20:20:15.590Z,0
2022-12-29T20:25:45.895Z,0
2022-12-29T20:31:11.920Z,0
2022-12-29T20:36:37.230Z,0
2022-12-29T20:42:05.885Z,0
2022-12-29T20:47:31.112Z,0
2022-12-29T20:52:56.479Z,0
2022-12-29T21:03:50.294Z,0
2022-12-29T21:09:17.464Z,0
2022-12-29T21:14:45.722Z,0
2022-12-29T21:20:18.513Z,0
2022-12-29T21:25:44.291Z,0
2022-12-29T21:31:09.541Z,0
2022-12-29T21:36:35.492Z,0
2022-12-29T21:42:00.833Z,0
2022-12-29T21:47:26.332Z,0
2022-12-29T21:52:51.576Z,0
2022-12-29T21:58:25.690Z,0
2022-12-29T22:03:51.010Z,0
2022-12-29T22:09:16.441Z,0
2022-12-29T22:14:41.901Z,0
2022-12-29T22:20:07.090Z,0
2022-12-29T22:25:32.534Z,0
2022-12-29T22:30:57.454Z,0
2022-12-29T22:36:22.856Z,0
2022-12-29T22:41:48.243Z,0
2022-12-29T22:47:13.663Z,0
2022-12-29T22:52:38.727Z,0
2022-12-29T22:58:04.129Z,0
2022-12-29T23:03:29.546Z,0
2022-12-29T23:08:55.131Z,0
2022-12-29T23:14:20.740Z,0
2022-12-29T23:19:46.215Z,0
2022-12-29T23:25:14.370Z,0
2022-12-29T23:30:39.912Z,0
2022-12-29T23:36:05.325Z,0
2022-12-29T23:41:30.626Z,0
2022-12-29T23:46:56.132Z,0
2022-12-29T23:52:21.534Z,0
2022-12-29T23:57:46.847Z,0
